createdAt,value
2023-07-03T00:00:32.814Z,30.63
2023-07-03T00:01:32.913Z,30.65
2023-07-03T00:02:33.005Z,30.63
2023-07-03T00:03:33.022Z,30.65
2023-07-03T00:04:33.103Z,30.65
2023-07-03T00:05:33.267Z,30.65
2023-07-03T00:06:33.227Z,30.63
2023-07-03T00:07:33.286Z,30.62
2023-07-03T00:08:33.338Z,30.63
2023-07-03T00:09:33.386Z,30.63
2023-07-03T00:10:33.460Z,30.61
2023-07-03T00:11:33.508Z,30.61
2023-07-03T00:12:33.535Z,30.63
2023-07-03T00:13:33.678Z,30.62
2023-07-03T00:14:33.685Z,30.59
2023-07-03T00:15:33.884Z,30.61
2023-07-03T00:16:33.819Z,30.63
2023-07-03T00:17:33.909Z,30.62
2023-07-03T00:18:33.922Z,30.59
2023-07-03T00:19:33.977Z,30.61
2023-07-03T00:20:34.031Z,30.58
2023-07-03T00:21:34.080Z,30.59
2023-07-03T00:22:34.161Z,30.59
2023-07-03T00:23:34.253Z,30.59
2023-07-03T00:24:34.270Z,30.59
2023-07-03T00:25:34.330Z,30.59
2023-07-03T00:26:34.376Z,30.58
2023-07-03T00:27:34.383Z,30.59
2023-07-03T00:28:34.466Z,30.58
2023-07-03T00:29:34.500Z,30.55
2023-07-03T00:30:34.567Z,30.56
2023-07-03T00:31:34.597Z,30.58
2023-07-03T00:32:34.643Z,30.56
2023-07-03T00:33:34.638Z,30.58
2023-07-03T00:34:34.690Z,30.56
2023-07-03T00:35:34.726Z,30.55
2023-07-03T00:36:34.771Z,30.54
2023-07-03T00:37:34.800Z,30.54
2023-07-03T00:38:34.830Z,30.56
2023-07-03T00:39:34.878Z,30.52
2023-07-03T00:40:34.879Z,30.54
2023-07-03T00:41:34.935Z,30.55
2023-07-03T00:42:34.931Z,30.52
2023-07-03T00:43:35.006Z,30.54
2023-07-03T00:44:35.006Z,30.54
2023-07-03T00:45:35.075Z,30.50
2023-07-03T00:46:35.161Z,30.52
2023-07-03T00:47:35.181Z,30.52
2023-07-03T00:48:35.197Z,30.50
2023-07-03T00:49:35.188Z,30.52
2023-07-03T00:50:35.258Z,30.52
2023-07-03T00:51:35.320Z,30.52
2023-07-03T00:52:35.322Z,30.49
2023-07-03T00:53:35.382Z,30.50
2023-07-03T00:54:35.433Z,30.50
2023-07-03T00:55:35.451Z,30.50
2023-07-03T00:56:35.568Z,30.49
2023-07-03T00:57:35.617Z,30.50
2023-07-03T00:58:35.618Z,30.49
2023-07-03T00:59:35.670Z,30.49
2023-07-03T01:00:35.734Z,30.50
2023-07-03T01:01:35.811Z,30.49
2023-07-03T01:02:35.789Z,30.49
2023-07-03T01:03:35.781Z,30.49
2023-07-03T01:04:36.012Z,30.49
2023-07-03T01:05:36.039Z,30.48
2023-07-03T01:06:35.930Z,30.49
2023-07-03T01:07:35.996Z,30.48
2023-07-03T01:08:35.996Z,30.48
2023-07-03T01:09:36.024Z,30.46
2023-07-03T01:10:36.059Z,30.48
2023-07-03T01:11:36.069Z,30.46
2023-07-03T01:12:36.086Z,30.49
2023-07-03T01:13:36.147Z,30.43
2023-07-03T01:14:36.208Z,30.48
2023-07-03T01:15:36.191Z,30.45
2023-07-03T01:16:36.284Z,30.45
2023-07-03T01:17:36.258Z,30.46
2023-07-03T01:18:36.220Z,30.46
2023-07-03T01:19:36.281Z,30.46
2023-07-03T01:20:36.234Z,30.45
2023-07-03T01:21:36.300Z,30.45
2023-07-03T01:22:36.300Z,30.46
2023-07-03T01:23:36.298Z,30.43
2023-07-03T01:24:36.311Z,30.45
2023-07-03T01:25:36.338Z,30.45
2023-07-03T01:26:36.325Z,30.43
2023-07-03T01:27:36.382Z,30.43
2023-07-03T01:28:36.341Z,30.42
2023-07-03T01:29:36.317Z,30.39
2023-07-03T01:30:36.368Z,30.42
2023-07-03T01:31:36.451Z,30.40
2023-07-03T01:32:36.404Z,30.39
2023-07-03T01:33:36.382Z,30.42
2023-07-03T01:34:36.380Z,30.40
2023-07-03T01:35:36.387Z,30.40
2023-07-03T01:36:36.396Z,30.40
2023-07-03T01:37:36.410Z,30.42
2023-07-03T01:38:36.412Z,30.38
2023-07-03T01:39:36.426Z,30.38
2023-07-03T01:40:36.426Z,30.38
2023-07-03T01:41:36.471Z,30.39
2023-07-03T01:42:36.484Z,30.38
2023-07-03T01:43:36.484Z,30.36
2023-07-03T01:44:36.490Z,30.38
2023-07-03T01:45:36.558Z,30.38
2023-07-03T01:46:36.689Z,30.40
2023-07-03T01:47:36.626Z,30.36
2023-07-03T01:48:36.574Z,30.38
2023-07-03T01:49:36.628Z,30.36
2023-07-03T01:50:36.660Z,30.35
2023-07-03T01:51:36.664Z,30.38
2023-07-03T01:52:36.827Z,30.36
2023-07-03T01:53:36.774Z,30.35
2023-07-03T01:54:36.796Z,30.35
2023-07-03T01:55:36.752Z,30.34
2023-07-03T01:56:36.839Z,30.35
2023-07-03T01:57:36.850Z,30.34
2023-07-03T01:58:36.861Z,30.32
2023-07-03T01:59:36.858Z,30.34
2023-07-03T02:00:36.926Z,30.32
2023-07-03T02:01:36.961Z,30.34
2023-07-03T02:02:37.069Z,30.32
2023-07-03T02:03:37.072Z,30.34
2023-07-03T02:04:37.059Z,30.31
2023-07-03T02:05:37.066Z,30.32
2023-07-03T02:06:37.070Z,30.32
2023-07-03T02:07:37.128Z,30.32
2023-07-03T02:08:37.128Z,30.32
2023-07-03T02:09:37.084Z,30.31
2023-07-03T02:10:37.255Z,30.32
2023-07-03T02:11:37.149Z,30.31
2023-07-03T02:12:37.158Z,30.29
2023-07-03T02:13:37.169Z,30.32
2023-07-03T02:14:37.162Z,30.29
2023-07-03T02:15:37.170Z,30.28
2023-07-03T02:16:37.201Z,30.27
2023-07-03T02:17:37.230Z,30.29
2023-07-03T02:18:37.198Z,30.29
2023-07-03T02:19:37.187Z,30.28
2023-07-03T02:20:37.212Z,30.28
2023-07-03T02:21:37.180Z,30.28
2023-07-03T02:22:39.371Z,30.28
2023-07-03T02:23:37.176Z,30.28
2023-07-03T02:24:37.205Z,30.24
2023-07-03T02:25:37.135Z,30.25
2023-07-03T02:26:37.147Z,30.25
2023-07-03T02:27:37.160Z,30.27
2023-07-03T02:28:37.208Z,30.25
2023-07-03T02:29:37.194Z,30.25
2023-07-03T02:30:37.153Z,30.27
2023-07-03T02:31:37.141Z,30.25
2023-07-03T02:32:37.826Z,30.27
2023-07-03T02:33:37.095Z,30.24
2023-07-03T02:34:37.098Z,30.27
2023-07-03T02:35:37.053Z,30.24
2023-07-03T02:36:37.113Z,30.27
2023-07-03T02:37:37.111Z,30.25
2023-07-03T02:38:37.085Z,30.25
2023-07-03T02:39:37.054Z,30.22
2023-07-03T02:40:37.107Z,30.19
2023-07-03T02:41:37.049Z,30.22
2023-07-03T02:42:37.056Z,30.21
2023-07-03T02:43:37.022Z,30.21
2023-07-03T02:44:37.070Z,30.22
2023-07-03T02:45:37.046Z,30.19
2023-07-03T02:46:37.091Z,30.22
2023-07-03T02:47:37.180Z,30.22
2023-07-03T02:48:36.987Z,30.22
2023-07-03T02:49:37.028Z,30.21
2023-07-03T02:50:37.014Z,30.21
2023-07-03T02:51:36.966Z,30.21
2023-07-03T02:52:37.021Z,30.21
2023-07-03T02:53:36.976Z,30.21
2023-07-03T02:54:36.947Z,30.21
2023-07-03T02:55:36.921Z,30.18
2023-07-03T02:56:36.936Z,30.21
2023-07-03T02:57:36.918Z,30.21
2023-07-03T02:58:36.904Z,30.19
2023-07-03T02:59:36.896Z,30.19
2023-07-03T03:00:36.951Z,30.18
2023-07-03T03:01:36.907Z,30.19
2023-07-03T03:02:36.990Z,30.18
2023-07-03T03:03:36.973Z,30.15
2023-07-03T03:04:36.983Z,30.21
2023-07-03T03:05:36.899Z,30.17
2023-07-03T03:06:36.972Z,30.18
2023-07-03T03:07:36.851Z,30.19
2023-07-03T03:08:36.863Z,30.17
2023-07-03T03:09:36.840Z,30.19
2023-07-03T03:10:36.856Z,30.17
2023-07-03T03:11:36.790Z,30.17
2023-07-03T03:12:36.788Z,30.19
2023-07-03T03:13:36.852Z,30.15
2023-07-03T03:14:36.816Z,30.17
2023-07-03T03:15:36.812Z,30.18
2023-07-03T03:16:36.856Z,30.18
2023-07-03T03:17:37.360Z,30.15
2023-07-03T03:18:36.779Z,30.17
2023-07-03T03:19:36.774Z,30.17
2023-07-03T03:20:36.754Z,30.14
2023-07-03T03:21:36.757Z,30.19
2023-07-03T03:22:36.797Z,30.15
2023-07-03T03:23:36.736Z,30.19
2023-07-03T03:24:36.740Z,30.17
2023-07-03T03:25:36.729Z,30.15
2023-07-03T03:26:36.725Z,30.15
2023-07-03T03:27:36.695Z,30.17
2023-07-03T03:28:36.714Z,30.15
2023-07-03T03:29:36.725Z,30.18
2023-07-03T03:30:36.719Z,30.15
2023-07-03T03:31:36.721Z,30.17
2023-07-03T03:32:36.707Z,30.17
2023-07-03T03:33:36.662Z,30.17
2023-07-03T03:34:36.661Z,30.17
2023-07-03T03:35:36.690Z,30.17
2023-07-03T03:36:36.671Z,30.17
2023-07-03T03:37:36.659Z,30.15
2023-07-03T03:38:36.612Z,30.18
2023-07-03T03:39:36.617Z,30.17
2023-07-03T03:40:36.734Z,30.19
2023-07-03T03:41:36.647Z,30.17
2023-07-03T03:42:36.632Z,30.17
2023-07-03T03:43:36.588Z,30.18
2023-07-03T03:44:36.609Z,30.17
2023-07-03T03:45:36.594Z,30.18
2023-07-03T03:46:36.652Z,30.18
2023-07-03T03:47:36.632Z,30.17
2023-07-03T03:48:36.799Z,30.15
2023-07-03T03:49:36.569Z,30.18
2023-07-03T03:50:36.520Z,30.17
2023-07-03T03:51:36.545Z,30.18
2023-07-03T03:52:36.530Z,30.15
2023-07-03T03:53:36.536Z,30.17
2023-07-03T03:54:36.509Z,30.18
2023-07-03T03:55:36.511Z,30.18
2023-07-03T03:56:36.492Z,30.17
2023-07-03T03:57:36.541Z,30.15
2023-07-03T03:58:36.529Z,30.18
2023-07-03T03:59:36.497Z,30.17
2023-07-03T04:00:36.480Z,30.17
2023-07-03T04:01:36.525Z,30.15
2023-07-03T04:02:36.548Z,30.18
2023-07-03T04:03:36.471Z,30.17
2023-07-03T04:04:36.574Z,30.15
2023-07-03T04:05:36.429Z,30.15
2023-07-03T04:06:36.429Z,30.12
2023-07-03T04:07:36.414Z,30.12
2023-07-03T04:08:36.406Z,30.10
2023-07-03T04:09:36.418Z,30.10
2023-07-03T04:10:36.427Z,30.10
2023-07-03T04:11:36.410Z,30.04
2023-07-03T04:12:36.437Z,30.05
2023-07-03T04:13:36.414Z,30.00
2023-07-03T04:14:36.387Z,30.00
2023-07-03T04:15:36.376Z,29.99
2023-07-03T04:16:36.398Z,29.97
2023-07-03T04:17:36.371Z,29.97
2023-07-03T04:18:36.342Z,29.93
2023-07-03T04:19:36.362Z,29.93
2023-07-03T04:20:36.328Z,29.90
2023-07-03T04:21:36.364Z,29.90
2023-07-03T04:22:36.326Z,29.88
2023-07-03T04:23:36.314Z,29.88
2023-07-03T04:24:36.313Z,29.87
2023-07-03T04:25:36.319Z,29.85
2023-07-03T04:26:36.277Z,29.84
2023-07-03T04:27:36.292Z,29.83
2023-07-03T04:28:36.328Z,29.83
2023-07-03T04:29:36.264Z,29.81
2023-07-03T04:30:36.247Z,29.80
2023-07-03T04:31:36.266Z,29.80
2023-07-03T04:32:38.266Z,29.80
2023-07-03T04:33:36.273Z,29.79
2023-07-03T04:34:36.321Z,29.79
2023-07-03T04:35:36.330Z,29.79
2023-07-03T04:36:36.410Z,29.80
2023-07-03T04:37:36.435Z,29.80
2023-07-03T04:38:36.432Z,29.79
2023-07-03T04:39:36.442Z,29.83
2023-07-03T04:40:36.499Z,29.79
2023-07-03T04:41:36.545Z,29.80
2023-07-03T04:42:36.574Z,29.83
2023-07-03T04:43:36.644Z,29.83
2023-07-03T04:44:36.686Z,29.84
2023-07-03T04:45:36.713Z,29.84
2023-07-03T04:46:36.750Z,29.85
2023-07-03T04:47:36.791Z,29.84
2023-07-03T04:48:36.799Z,29.83
2023-07-03T04:49:36.845Z,29.85
2023-07-03T04:50:36.887Z,29.85
2023-07-03T04:51:36.882Z,29.85
2023-07-03T04:52:36.883Z,29.87
2023-07-03T04:53:36.958Z,29.84
2023-07-03T04:54:36.927Z,29.85
2023-07-03T04:55:36.980Z,29.85
2023-07-03T04:56:36.997Z,29.88
2023-07-03T04:57:37.074Z,29.87
2023-07-03T04:58:37.061Z,29.90
2023-07-03T04:59:37.113Z,29.87
2023-07-03T05:00:37.165Z,29.87
2023-07-03T05:01:37.187Z,29.88
2023-07-03T05:02:37.265Z,29.85
2023-07-03T05:03:37.241Z,29.87
2023-07-03T05:04:37.355Z,29.87
2023-07-03T05:05:37.301Z,29.87
2023-07-03T05:06:37.321Z,29.85
2023-07-03T05:07:37.328Z,29.84
2023-07-03T05:08:37.378Z,29.85
2023-07-03T05:09:37.418Z,29.84
2023-07-03T05:10:37.444Z,29.85
2023-07-03T05:11:37.501Z,29.87
2023-07-03T05:12:37.605Z,29.84
2023-07-03T05:13:37.548Z,29.84
2023-07-03T05:14:37.555Z,29.83
2023-07-03T05:15:37.732Z,29.85
2023-07-03T05:16:37.629Z,29.84
2023-07-03T05:17:37.708Z,29.83
2023-07-03T05:18:37.731Z,29.83
2023-07-03T05:19:37.714Z,29.83
2023-07-03T05:20:37.794Z,29.83
2023-07-03T05:21:37.800Z,29.81
2023-07-03T05:22:37.836Z,29.81
2023-07-03T05:23:37.979Z,29.83
2023-07-03T05:24:37.925Z,29.81
2023-07-03T05:25:38.010Z,29.81
2023-07-03T05:26:38.019Z,29.80
2023-07-03T05:27:38.018Z,29.81
2023-07-03T05:28:38.036Z,29.80
2023-07-03T05:29:38.106Z,29.80
2023-07-03T05:30:38.172Z,29.81
2023-07-03T05:31:38.257Z,29.81
2023-07-03T05:32:38.262Z,29.81
2023-07-03T05:33:38.520Z,29.83
2023-07-03T05:34:38.929Z,29.84
2023-07-03T05:35:48.466Z,29.81
2023-07-03T05:36:39.423Z,29.74
2023-07-03T05:37:38.493Z,29.67
2023-07-03T05:38:39.050Z,29.63
2023-07-03T05:39:38.398Z,29.59
2023-07-03T05:40:39.214Z,29.57
2023-07-03T05:41:38.310Z,29.52
2023-07-03T05:42:38.321Z,29.45
2023-07-03T05:43:38.303Z,29.42
2023-07-03T05:44:38.308Z,29.36
2023-07-03T05:45:38.277Z,29.36
2023-07-03T05:46:38.276Z,29.33
2023-07-03T05:47:38.318Z,29.33
2023-07-03T05:48:38.231Z,29.28
2023-07-03T05:49:38.277Z,29.28
2023-07-03T05:50:38.274Z,29.28
2023-07-03T05:51:38.240Z,29.30
2023-07-03T05:52:38.283Z,29.30
2023-07-03T05:53:38.411Z,29.32
2023-07-03T05:54:38.361Z,29.35
2023-07-03T05:55:38.304Z,29.36
2023-07-03T05:56:38.284Z,29.40
2023-07-03T05:57:38.322Z,29.42
2023-07-03T05:58:38.412Z,29.48
2023-07-03T05:59:38.407Z,29.52
2023-07-03T06:00:39.042Z,29.50
2023-07-03T06:01:38.673Z,29.59
2023-07-03T06:02:38.676Z,29.64
2023-07-03T06:03:38.670Z,29.67
2023-07-03T06:04:38.707Z,29.73
2023-07-03T06:05:38.762Z,29.77
2023-07-03T06:06:38.791Z,29.77
2023-07-03T06:07:38.794Z,29.81
2023-07-03T06:08:38.835Z,29.83
2023-07-03T06:09:38.897Z,29.88
2023-07-03T06:10:38.956Z,29.88
2023-07-03T06:11:39.014Z,29.90
2023-07-03T06:12:39.041Z,29.91
2023-07-03T06:13:39.099Z,29.94
2023-07-03T06:14:39.090Z,29.90
2023-07-03T06:15:39.153Z,29.90
2023-07-03T06:16:39.180Z,29.96
2023-07-03T06:17:39.207Z,29.94
2023-07-03T06:18:39.272Z,29.94
2023-07-03T06:19:39.289Z,29.97
2023-07-03T06:20:39.308Z,30.01
2023-07-03T06:21:39.323Z,30.01
2023-07-03T06:22:39.333Z,30.04
2023-07-03T06:23:39.392Z,30.05
2023-07-03T06:24:39.490Z,30.05
2023-07-03T06:25:39.432Z,30.04
2023-07-03T06:26:39.521Z,30.04
2023-07-03T06:27:39.516Z,30.07
2023-07-03T06:28:39.562Z,30.10
2023-07-03T06:29:39.613Z,30.12
2023-07-03T06:30:39.627Z,30.12
2023-07-03T06:31:39.715Z,30.14
2023-07-03T06:32:39.702Z,30.14
2023-07-03T06:33:39.741Z,30.14
2023-07-03T06:34:39.709Z,30.14
2023-07-03T06:35:39.734Z,30.17
2023-07-03T06:36:40.096Z,30.15
2023-07-03T06:37:39.789Z,30.15
2023-07-03T06:38:40.036Z,30.15
2023-07-03T06:39:39.973Z,30.18
2023-07-03T06:40:39.844Z,30.21
2023-07-03T06:41:39.858Z,30.19
2023-07-03T06:42:40.268Z,30.21
2023-07-03T06:43:39.902Z,30.19
2023-07-03T06:44:39.953Z,30.17
2023-07-03T06:45:39.907Z,30.18
2023-07-03T06:46:40.016Z,30.17
2023-07-03T06:47:40.109Z,30.18
2023-07-03T06:48:40.003Z,30.17
2023-07-03T06:49:40.085Z,30.18
2023-07-03T06:50:40.044Z,30.19
2023-07-03T06:51:40.096Z,30.11
2023-07-03T06:52:40.101Z,30.17
2023-07-03T06:53:40.175Z,30.11
2023-07-03T06:54:40.176Z,30.10
2023-07-03T06:55:40.304Z,30.05
2023-07-03T06:56:40.597Z,30.03
2023-07-03T06:57:40.345Z,29.99
2023-07-03T06:58:40.360Z,29.97
2023-07-03T06:59:43.023Z,29.94
2023-07-03T07:00:40.383Z,29.93
2023-07-03T07:01:40.408Z,29.96
2023-07-03T07:02:40.373Z,29.94
2023-07-03T07:03:40.441Z,29.96
2023-07-03T07:04:40.377Z,29.93
2023-07-03T07:05:40.516Z,29.94
2023-07-03T07:06:40.588Z,29.96
2023-07-03T07:07:40.378Z,29.96
2023-07-03T07:08:40.308Z,29.94
2023-07-03T07:09:40.335Z,29.94
2023-07-03T07:10:40.328Z,29.94
2023-07-03T07:11:40.696Z,29.93
2023-07-03T07:12:40.309Z,29.97
2023-07-03T07:13:40.317Z,29.94
2023-07-03T07:14:40.268Z,29.99
2023-07-03T07:15:40.276Z,30.00
2023-07-03T07:16:40.245Z,30.01
2023-07-03T07:17:51.056Z,29.99
2023-07-03T07:18:41.311Z,30.00
2023-07-03T07:19:40.216Z,30.04
2023-07-03T07:20:40.256Z,30.03
2023-07-03T07:21:40.243Z,30.05
2023-07-03T07:22:40.228Z,30.07
2023-07-03T07:23:40.179Z,30.05
2023-07-03T07:24:40.188Z,30.08
2023-07-03T07:25:40.188Z,30.08
2023-07-03T07:26:40.154Z,30.10
2023-07-03T07:27:40.366Z,30.10
2023-07-03T07:28:40.161Z,30.10
2023-07-03T07:29:40.180Z,30.11
2023-07-03T07:30:40.236Z,30.08
2023-07-03T07:31:42.264Z,30.11
2023-07-03T07:32:40.222Z,30.11
2023-07-03T07:33:40.203Z,30.08
2023-07-03T07:34:40.191Z,30.11
2023-07-03T07:35:40.199Z,30.11
2023-07-03T07:36:40.206Z,30.10
2023-07-03T07:37:40.247Z,30.14
2023-07-03T07:38:40.756Z,30.14
2023-07-03T07:39:40.204Z,30.22
2023-07-03T07:40:40.219Z,30.22
2023-07-03T07:41:40.228Z,30.18
2023-07-03T07:42:40.414Z,30.22
2023-07-03T07:43:40.310Z,30.22
2023-07-03T07:44:40.247Z,30.24
2023-07-03T07:45:40.222Z,30.25
2023-07-03T07:46:40.285Z,30.27
2023-07-03T07:47:40.304Z,30.27
2023-07-03T07:48:40.282Z,30.34
2023-07-03T07:49:40.287Z,30.36
2023-07-03T07:50:40.317Z,30.39
2023-07-03T07:51:40.330Z,30.42
2023-07-03T07:52:40.630Z,30.45
2023-07-03T07:53:40.378Z,30.50
2023-07-03T07:54:40.696Z,30.52
2023-07-03T07:55:40.761Z,30.56
2023-07-03T07:56:40.434Z,30.59
2023-07-03T07:57:40.522Z,30.61
2023-07-03T07:58:40.542Z,30.61
2023-07-03T07:59:40.628Z,30.62
2023-07-03T08:00:40.533Z,30.66
2023-07-03T08:01:40.785Z,30.67
2023-07-03T08:02:40.814Z,30.66
2023-07-03T08:03:40.619Z,30.70
2023-07-03T08:04:40.832Z,30.73
2023-07-03T08:05:40.601Z,30.75
2023-07-03T08:06:40.705Z,30.77
2023-07-03T08:07:40.680Z,30.77
2023-07-03T08:08:40.785Z,30.77
2023-07-03T08:09:40.716Z,30.79
2023-07-03T08:10:41.036Z,30.82
2023-07-03T08:11:41.012Z,30.80
2023-07-03T08:12:43.144Z,30.82
2023-07-03T08:13:40.975Z,30.82
2023-07-03T08:14:41.003Z,30.83
2023-07-03T08:15:41.137Z,30.82
2023-07-03T08:16:41.270Z,30.86
2023-07-03T08:17:41.240Z,30.84
2023-07-03T08:18:41.609Z,30.84
2023-07-03T08:19:41.556Z,30.87
2023-07-03T08:20:41.384Z,30.90
2023-07-03T08:21:41.735Z,30.91
2023-07-03T08:22:41.546Z,30.91
2023-07-03T08:23:41.534Z,30.93
2023-07-03T08:24:41.604Z,30.96
2023-07-03T08:25:41.790Z,30.96
2023-07-03T08:26:41.712Z,31.00
2023-07-03T08:27:41.903Z,31.04
2023-07-03T08:28:42.954Z,31.03
2023-07-03T08:29:41.994Z,31.04
2023-07-03T08:30:41.850Z,31.01
2023-07-03T08:31:42.380Z,31.03
2023-07-03T08:32:42.111Z,31.06
2023-07-03T08:33:42.136Z,31.04
2023-07-03T08:37:42.005Z,31.01
2023-07-03T08:38:42.130Z,31.01
2023-07-03T08:39:41.954Z,30.98
2023-07-03T08:40:41.981Z,30.98
2023-07-03T08:41:41.964Z,30.97
2023-07-03T08:42:41.971Z,30.96
2023-07-03T08:43:41.988Z,30.94
2023-07-03T08:44:41.912Z,30.93
2023-07-03T08:45:41.967Z,30.90
2023-07-03T08:46:42.192Z,30.90
2023-07-03T08:47:42.019Z,30.90
2023-07-03T08:48:42.015Z,30.93
2023-07-03T08:49:41.865Z,30.96
2023-07-03T08:50:41.930Z,30.91
2023-07-03T08:51:41.947Z,30.94
2023-07-03T08:52:41.892Z,30.93
2023-07-03T08:53:41.893Z,30.94
2023-07-03T08:54:42.018Z,30.89
2023-07-03T08:55:41.875Z,30.91
2023-07-03T08:56:41.874Z,30.86
2023-07-03T08:57:41.893Z,30.84
2023-07-03T08:58:41.855Z,30.86
2023-07-03T08:59:41.847Z,30.80
2023-07-03T09:00:41.838Z,30.79
2023-07-03T09:01:41.927Z,30.80
2023-07-03T09:02:41.982Z,30.82
2023-07-03T09:03:42.094Z,30.83
2023-07-03T09:04:42.130Z,30.84
2023-07-03T09:05:41.807Z,30.87
2023-07-03T09:06:41.805Z,30.79
2023-07-03T09:07:41.839Z,30.79
2023-07-03T09:08:41.808Z,30.82
2023-07-03T09:09:41.856Z,30.80
2023-07-03T09:10:41.756Z,30.80
2023-07-03T09:11:43.114Z,30.76
2023-07-03T09:12:42.592Z,30.79
2023-07-03T09:13:42.494Z,30.76
2023-07-03T09:14:42.064Z,30.79
2023-07-03T09:15:42.114Z,30.80
2023-07-03T09:16:42.137Z,30.73
2023-07-03T09:17:42.222Z,30.67
2023-07-03T09:18:42.305Z,30.69
2023-07-03T09:19:42.368Z,30.66
2023-07-03T09:20:42.262Z,30.66
2023-07-03T09:21:42.300Z,30.62
2023-07-03T09:22:42.466Z,30.65
2023-07-03T09:23:42.487Z,30.66
2023-07-03T09:24:42.370Z,30.69
2023-07-03T09:25:42.416Z,30.67
2023-07-03T09:26:42.469Z,30.69
2023-07-03T09:27:42.697Z,30.72
2023-07-03T09:28:42.655Z,30.72
2023-07-03T09:29:42.673Z,30.76
2023-07-03T09:30:42.691Z,30.75
2023-07-03T09:31:42.800Z,30.79
2023-07-03T09:32:42.711Z,30.76
2023-07-03T09:33:42.745Z,30.70
2023-07-03T09:34:42.793Z,30.43
2023-07-03T09:36:43.118Z,30.61
2023-07-03T09:37:42.882Z,30.61
2023-07-03T09:38:42.923Z,30.62
2023-07-03T09:39:42.961Z,30.66
2023-07-03T09:40:42.989Z,30.70
2023-07-03T09:41:43.010Z,30.69
2023-07-03T09:42:43.020Z,30.67
2023-07-03T09:43:43.081Z,30.63
2023-07-03T09:44:43.148Z,30.63
2023-07-03T09:45:44.568Z,30.66
2023-07-03T09:46:43.272Z,30.67
2023-07-03T09:47:43.536Z,30.70
2023-07-03T09:48:43.214Z,30.72
2023-07-03T09:49:43.368Z,30.72
2023-07-03T09:50:50.868Z,30.72
2023-07-03T09:51:44.453Z,30.73
2023-07-03T09:52:47.238Z,30.72
2023-07-03T09:53:44.247Z,30.75
2023-07-03T09:54:43.194Z,30.75
2023-07-03T09:55:43.241Z,30.76
2023-07-03T09:56:43.211Z,30.75
2023-07-03T09:57:43.231Z,30.73
2023-07-03T09:58:43.332Z,30.72
2023-07-03T09:59:43.160Z,30.73
2023-07-03T10:00:44.073Z,30.72
2023-07-03T10:03:43.240Z,30.65
2023-07-03T10:06:43.228Z,30.75
2023-07-03T10:07:43.475Z,30.76
2023-07-03T10:08:44.009Z,30.80
2023-07-03T10:11:43.285Z,30.80
2023-07-03T10:12:43.139Z,30.84
2023-07-03T10:13:44.063Z,30.82
2023-07-03T10:14:43.780Z,30.82
2023-07-03T10:15:43.068Z,30.84
2023-07-03T10:16:43.112Z,30.83
2023-07-03T10:17:43.245Z,30.84
2023-07-03T10:18:43.048Z,30.86
2023-07-03T10:19:43.048Z,30.84
2023-07-03T10:20:43.075Z,30.80
2023-07-03T10:21:43.684Z,30.87
2023-07-03T10:22:43.174Z,30.89
2023-07-03T10:23:43.386Z,30.87
2023-07-03T10:24:43.031Z,30.89
2023-07-03T10:25:43.013Z,30.90
2023-07-03T10:26:42.993Z,30.94
2023-07-03T10:27:42.991Z,30.91
2023-07-03T10:28:42.983Z,30.93
2023-07-03T10:29:43.014Z,30.94
2023-07-03T10:30:42.925Z,30.94
2023-07-03T10:31:46.083Z,30.94
2023-07-03T10:32:42.948Z,30.96
2023-07-03T10:33:42.936Z,30.94
2023-07-03T10:34:42.958Z,30.97
2023-07-03T10:35:42.933Z,30.97
2023-07-03T10:36:42.979Z,30.96
2023-07-03T10:37:42.918Z,30.93
2023-07-03T10:38:42.919Z,30.93
2023-07-03T10:39:43.047Z,30.97
2023-07-03T10:40:42.879Z,30.96
2023-07-03T10:41:42.910Z,30.97
2023-07-03T10:42:42.918Z,30.94
2023-07-03T10:43:42.876Z,30.96
2023-07-03T10:44:42.870Z,30.90
2023-07-03T10:45:42.906Z,30.89
2023-07-03T10:46:43.586Z,30.89
2023-07-03T10:47:42.868Z,30.90
2023-07-03T10:48:42.801Z,30.91
2023-07-03T10:49:42.840Z,30.90
2023-07-03T10:50:42.795Z,30.93
2023-07-03T10:51:42.807Z,30.93
2023-07-03T10:52:42.812Z,30.93
2023-07-03T10:53:42.776Z,30.91
2023-07-03T10:54:42.799Z,30.91
2023-07-03T10:55:42.821Z,30.94
2023-07-03T10:56:42.746Z,30.94
2023-07-03T10:57:42.737Z,30.94
2023-07-03T10:58:42.776Z,30.96
2023-07-03T10:59:42.765Z,30.97
2023-07-03T11:00:42.764Z,31.00
2023-07-03T11:01:42.758Z,31.01
2023-07-03T11:02:42.817Z,31.04
2023-07-03T11:03:43.835Z,31.07
2023-07-03T11:04:42.791Z,31.10
2023-07-03T11:05:42.697Z,31.11
2023-07-03T11:06:42.708Z,31.16
2023-07-03T11:07:42.702Z,31.18
2023-07-03T11:08:42.682Z,31.20
2023-07-03T11:09:42.697Z,31.21
2023-07-03T11:10:42.657Z,31.24
2023-07-03T11:11:42.840Z,31.24
2023-07-03T11:12:42.637Z,31.30
2023-07-03T11:13:42.719Z,31.32
2023-07-03T11:14:42.678Z,31.32
2023-07-03T11:15:42.656Z,31.34
2023-07-03T11:16:42.736Z,31.35
2023-07-03T11:22:42.640Z,31.46
2023-07-03T11:23:42.614Z,31.45
2023-07-03T11:24:42.552Z,31.48
2023-07-03T11:28:42.573Z,31.53
2023-07-03T11:29:42.538Z,31.53
2023-07-03T11:30:42.524Z,31.55
2023-07-03T11:31:42.566Z,31.59
2023-07-03T11:32:42.503Z,31.57
2023-07-03T11:36:50.399Z,31.64
2023-07-03T11:40:42.525Z,31.68
2023-07-03T11:43:42.431Z,31.69
2023-07-03T11:44:42.410Z,31.71
2023-07-03T11:45:42.419Z,31.71
2023-07-03T11:46:42.460Z,31.69
2023-07-03T11:47:42.448Z,31.69
2023-07-03T11:48:42.439Z,31.76
2023-07-03T11:49:42.395Z,31.75
2023-07-03T11:50:42.385Z,31.73
2023-07-03T11:51:42.396Z,31.76
2023-07-03T11:52:42.595Z,31.76
2023-07-03T11:53:42.375Z,31.80
2023-07-03T11:54:42.353Z,31.79
2023-07-03T11:55:42.365Z,31.79
2023-07-03T11:56:42.359Z,31.78
2023-07-03T11:57:42.327Z,31.80
2023-07-03T11:58:42.358Z,31.80
2023-07-03T11:59:42.324Z,31.80
2023-07-03T12:00:42.673Z,31.83
2023-07-03T12:01:42.294Z,31.80
2023-07-03T12:02:42.390Z,31.83
2023-07-03T12:03:42.306Z,31.82
2023-07-03T12:04:44.751Z,31.86
2023-07-03T12:05:42.390Z,31.85
2023-07-03T12:06:42.381Z,31.83
2023-07-03T12:07:42.329Z,31.87
2023-07-03T12:08:42.277Z,31.87
2023-07-03T12:09:42.258Z,31.89
2023-07-03T12:10:42.319Z,31.90
2023-07-03T12:11:42.228Z,31.92
2023-07-03T12:12:42.222Z,31.93
2023-07-03T12:13:42.270Z,31.92
2023-07-03T12:14:42.254Z,31.93
2023-07-03T12:15:42.217Z,31.95
2023-07-03T12:16:42.244Z,31.95
2023-07-03T12:17:42.224Z,31.97
2023-07-03T12:18:42.213Z,31.95
2023-07-03T12:19:42.195Z,31.99
2023-07-03T12:20:42.210Z,32.00
2023-07-03T12:21:42.181Z,32.00
2023-07-03T12:22:42.196Z,32.00
2023-07-03T12:23:42.182Z,32.03
2023-07-03T12:24:42.184Z,32.03
2023-07-03T12:25:42.159Z,32.03
2023-07-03T12:26:42.196Z,32.04
2023-07-03T12:27:42.140Z,32.04
2023-07-03T12:28:42.133Z,32.06
2023-07-03T12:29:42.153Z,32.09
2023-07-03T12:30:42.133Z,32.07
2023-07-03T12:31:42.255Z,32.10
2023-07-03T12:32:42.128Z,32.09
2023-07-03T12:33:42.159Z,32.09
2023-07-03T12:34:42.190Z,32.12
2023-07-03T12:35:42.245Z,32.10
2023-07-03T12:36:47.385Z,32.12
2023-07-03T12:37:43.276Z,32.12
2023-07-03T12:38:42.230Z,32.14
2023-07-03T12:39:42.268Z,32.14
2023-07-03T12:40:42.278Z,32.14
2023-07-03T12:41:42.407Z,32.14
2023-07-03T12:42:42.251Z,32.17
2023-07-03T12:43:42.230Z,32.16
2023-07-03T12:44:42.268Z,32.19
2023-07-03T12:45:42.169Z,32.20
2023-07-03T12:46:42.289Z,32.20
2023-07-03T12:47:42.264Z,32.22
2023-07-03T12:48:42.173Z,32.22
2023-07-03T12:49:42.185Z,32.20
2023-07-03T12:50:42.183Z,32.26
2023-07-03T12:51:42.268Z,32.24
2023-07-03T12:52:42.185Z,32.26
2023-07-03T12:53:42.163Z,32.26
2023-07-03T12:54:42.219Z,32.28
2023-07-03T12:55:42.229Z,32.28
2023-07-03T12:56:42.250Z,32.30
2023-07-03T12:57:42.251Z,32.31
2023-07-03T12:58:42.255Z,32.33
2023-07-03T12:59:42.321Z,32.34
2023-07-03T13:00:42.365Z,32.35
2023-07-03T13:01:42.284Z,32.37
2023-07-03T13:02:42.399Z,32.37
2023-07-03T13:03:42.298Z,32.40
2023-07-03T13:04:42.366Z,32.40
2023-07-03T13:05:42.431Z,32.38
2023-07-03T13:06:42.293Z,32.41
2023-07-03T13:07:42.327Z,32.42
2023-07-03T13:08:42.291Z,32.44
2023-07-03T13:09:42.409Z,32.44
2023-07-03T13:10:42.296Z,32.45
2023-07-03T13:11:42.330Z,32.47
2023-07-03T13:12:42.374Z,32.48
2023-07-03T13:13:42.371Z,32.51
2023-07-03T13:14:42.269Z,32.51
2023-07-03T13:15:43.215Z,32.52
2023-07-03T13:16:42.287Z,32.51
2023-07-03T13:17:42.312Z,32.54
2023-07-03T13:18:42.311Z,32.52